• Join FlightAware (Why Join?)
  • Login
  • US Flag 
11:55AM EDT


 

Airport Tracker/Info


-or-


 

Live Flight TrackerFlight Track Log ✈ ASA123 ✈ 29-Jun-2013 ✈ KSEA - PAFA / FAI

Flight Track Log - Related Links

Times and Time Zones

All times are in EDT time to prevent confusion due to time zone crossing. See the ASA123 flight status page for this flight to view local times or setup timezone preferences in your user account.

Time Position Orientation Groundspeed Altitude Reporting Facility
EDT Latitude Longitude Course Direction KTS MPH feet Rate Location/Type
04:52PM 47.4258 -122.3089 181° South 173 199 1,300  Level Seattle Center
04:53PM 47.3950 -122.3097 181° South 177 204 2,200 1,800 Climbing Seattle Center
04:54PM 47.3333 -122.3206 187° South 237 273 4,300 1,980 Climbing Seattle Center
04:55PM 47.3092 -122.4458 254° West 270 311 7,000 2,160 Climbing Seattle Center
04:56PM 47.3597 -122.5475 306° West 289 333 9,500 2,040 Climbing Seattle Center
04:57PM 47.4244 -122.6322 318° Northwest 310 357 11,200 1,620 Climbing Seattle Center
04:58PM 47.4989 -122.7303 318° Northwest 357 411 12,900 1,920 Climbing Seattle Center
04:59PM 47.5844 -122.8122 327° Northwest 381 438 15,200 2,280 Climbing Seattle Center
05:00PM 47.6778 -122.8939 330° Northwest 389 448 17,600 2,100 Climbing Seattle Center
05:01PM 47.7750 -122.9797 329° Northwest 406 467 19,500 1,860 Climbing Seattle Center
05:02PM 47.8739 -123.0661 330° Northwest 414 476 21,500 1,860 Climbing Seattle Center
05:03PM 47.9750 -123.1556 329° Northwest 426 490 23,400 1,680 Climbing Seattle Center
05:04PM 48.0761 -123.2450 329° Northwest 434 499 25,000 1,620 Climbing Seattle Center
05:05PM 48.2042 -123.3619 329° Northwest 441 507 26,700 1,440 Climbing Seattle Center
05:06PM 48.3097 -123.4556 329° Northwest 446 513 28,000 1,260 Climbing Seattle Center
05:08PM 48.4333 -123.6000 322° Northwest 460 529 29,700 1,320 Climbing Vancouver Center
05:09PM 48.5500 -123.7000 330° Northwest 460 529 31,200 1,560 Climbing Vancouver Center
05:10PM 48.6500 -123.8000 327° Northwest 460 529 32,900 1,380 Climbing Vancouver Center
05:11PM 48.7667 -123.8833 335° Northwest 450 518 34,000 960 Climbing Vancouver Center
05:12PM 48.8667 -123.9833 327° Northwest 450 518 34,900 900 Climbing Vancouver Center
05:13PM 48.9667 -124.0833 327° Northwest 450 518 35,800 540 Climbing Vancouver Center
05:14PM 49.0833 -124.1833 331° Northwest 450 518 36,000 60 Climbing Vancouver Center
05:15PM 49.1833 -124.2833 327° Northwest 450 518 36,000  Level Vancouver Center
05:16PM 49.2833 -124.3833 327° Northwest 450 518 36,000  Level Vancouver Center
05:17PM 49.4000 -124.5000 327° Northwest 450 518 36,000  Level Vancouver Center
05:18PM 49.5000 -124.6000 327° Northwest 450 518 36,000  Level Vancouver Center
05:19PM 49.6000 -124.6667 337° Northwest 450 518 36,000  Level Vancouver Center
05:20PM 49.7167 -124.7833 327° Northwest 450 518 36,000  Level Vancouver Center
05:21PM 49.8167 -124.8833 327° Northwest 450 518 36,000  Level Vancouver Center
05:22PM 49.9333 -125.0000 327° Northwest 450 518 36,000  Level Vancouver Center
05:23PM 50.0333 -125.1000 327° Northwest 450 518 36,000  Level Vancouver Center
05:24PM 50.1500 -125.2000 331° Northwest 460 529 36,000  Level Vancouver Center
05:25PM 50.2500 -125.3167 323° Northwest 460 529 36,000  Level Vancouver Center
05:26PM 50.3667 -125.4167 331° Northwest 460 529 36,000  Level Vancouver Center
05:27PM 50.4667 -125.5333 323° Northwest 460 529 36,000  Level Vancouver Center
05:28PM 50.5833 -125.6333 331° Northwest 460 529 36,000  Level Vancouver Center
05:29PM 50.6833 -125.7500 324° Northwest 460 529 36,000  Level Vancouver Center
05:30PM 50.8000 -125.8667 328° Northwest 460 529 36,000  Level Vancouver Center
05:31PM 50.9000 -125.9667 328° Northwest 460 529 36,000  Level Vancouver Center
05:32PM 51.0000 -126.0833 324° Northwest 460 529 36,000  Level Vancouver Center
05:33PM 51.1167 -126.2000 328° Northwest 460 529 36,000  Level Vancouver Center
05:34PM 51.2167 -126.3000 328° Northwest 450 518 36,000  Level Vancouver Center
05:35PM 51.3333 -126.4167 328° Northwest 450 518 36,000  Level Vancouver Center
05:36PM 51.4333 -126.5333 324° Northwest 460 529 36,000  Level Vancouver Center
05:37PM 51.5500 -126.6500 328° Northwest 460 529 36,000  Level Vancouver Center
05:38PM 51.6333 -126.7500 323° Northwest 460 529 36,000  Level Vancouver Center
05:39PM 51.7500 -126.8667 328° Northwest 460 529 36,000  Level Vancouver Center
05:40PM 51.8500 -126.9833 324° Northwest 460 529 36,000  Level Vancouver Center
05:41PM 51.9667 -127.1000 328° Northwest 460 529 36,000  Level Vancouver Center
05:42PM 52.0833 -127.2167 328° Northwest 460 529 36,000  Level Vancouver Center
05:43PM 52.1667 -127.3333 319° Northwest 460 529 36,000  Level Vancouver Center
05:44PM 52.2833 -127.4500 329° Northwest 460 529 36,000  Level Vancouver Center
05:45PM 52.3833 -127.5500 329° Northwest 460 529 36,000  Level Vancouver Center
05:46PM 52.5000 -127.7000 322° Northwest 460 529 36,000  Level Vancouver Center
05:47PM 52.6000 -127.8167 325° Northwest 470 541 36,000  Level Vancouver Center
05:48PM 52.7000 -127.9333 325° Northwest 470 541 36,000  Level Vancouver Center
05:49PM 52.8167 -128.0500 329° Northwest 470 541 36,000  Level Vancouver Center
05:50PM 52.9333 -128.1667 329° Northwest 470 541 36,000  Level Vancouver Center
05:51PM 53.0500 -128.3000 326° Northwest 490 564 36,000  Level Vancouver Center
05:52PM 53.1333 -128.4167 320° Northwest 480 552 36,000  Level Vancouver Center
05:53PM 53.2500 -128.5500 326° Northwest 480 552 36,000  Level Vancouver Center
05:54PM 53.3667 -128.6667 329° Northwest 470 541 36,000  Level Vancouver Center
05:55PM 53.4833 -128.8167 323° Northwest 480 552 36,000  Level Vancouver Center
05:56PM 53.5667 -128.9500 316° Northwest 480 552 36,000  Level Vancouver Center
05:57PM 53.7000 -129.0667 333° Northwest 480 552 36,000  Level Vancouver Center
05:58PM 53.8000 -129.2000 322° Northwest 480 552 36,000  Level Vancouver Center
05:59PM 53.9000 -129.3167 326° Northwest 480 552 36,000  Level Vancouver Center
06:00PM 54.0167 -129.4500 326° Northwest 480 552 36,000  Level Vancouver Center
06:01PM 54.1333 -129.6167 320° Northwest 490 564 36,000  Level Vancouver Center
06:02PM 54.2333 -129.7333 326° Northwest 490 564 36,000  Level Vancouver Center
06:03PM 54.3500 -129.8667 326° Northwest 490 564 36,000  Level Vancouver Center
06:04PM 54.4500 -130.0333 316° Northwest 490 564 36,000  Level Vancouver Center
06:05PM 54.5667 -130.1667 326° Northwest 500 575 36,000  Level Vancouver Center
06:06PM 54.6833 -130.3000 327° Northwest 500 575 36,000  Level Vancouver Center
06:07PM 54.7833 -130.4333 322° Northwest 500 575 36,000  Level Vancouver Center
06:08PM 54.9000 -130.5833 324° Northwest 490 564 36,000  Level Vancouver Center
06:09PM 55.0000 -130.7167 323° Northwest 490 564 36,000  Level Vancouver Center
06:10PM 55.1167 -130.8667 324° Northwest 490 564 36,000  Level Vancouver Center
06:11PM 55.2167 -131.0000 323° Northwest 490 564 36,000  Level Vancouver Center
06:12PM 55.3333 -131.1667 321° Northwest 490 564 36,000  Level Vancouver Center
06:13PM 55.4333 -131.3000 323° Northwest 480 552 36,000  Level Vancouver Center
06:14PM 55.5500 -131.4333 327° Northwest 490 564 36,000  Level Vancouver Center
06:15PM 55.6667 -131.5833 324° Northwest 490 564 36,000  Level Vancouver Center
06:16PM 55.7667 -131.7167 323° Northwest 490 564 36,000  Level Vancouver Center
06:17PM 55.8667 -131.8833 317° Northwest 490 564 36,000  Level Vancouver Center
06:18PM 55.9833 -132.0333 324° Northwest 500 575 36,000  Level Vancouver Center
06:19PM 56.0833 -132.1667 323° Northwest 490 564 36,000  Level Vancouver Center
06:20PM 56.2000 -132.3500 319° Northwest 490 564 36,000  Level Vancouver Center
06:21PM 56.3000 -132.4833 324° Northwest 490 564 36,000  Level Vancouver Center
06:22PM 56.4167 -132.6333 325° Northwest 490 564 36,000  Level Vancouver Center
06:23PM 56.5167 -132.7833 320° Northwest 490 564 36,000  Level Vancouver Center
06:24PM 56.6167 -132.9333 320° Northwest 480 552 36,000  Level Vancouver Center
06:25PM 56.7333 -133.0833 325° Northwest 490 564 36,000  Level Vancouver Center
06:26PM 56.8333 -133.2167 324° Northwest 480 552 36,000  Level Vancouver Center
06:27PM 56.9333 -133.4000 315° West 480 552 36,000  Level Vancouver Center
06:28PM 57.0500 -133.5500 325° Northwest 480 552 36,000  Level Vancouver Center
06:29PM 57.1333 -133.7000 316° Northwest 490 564 36,000  Level Vancouver Center
06:30PM 57.2500 -133.8500 325° Northwest 490 564 36,000  Level Vancouver Center
06:31PM 57.3500 -134.0333 315° West 490 564 36,000  Level Vancouver Center
06:32PM 57.4500 -134.1833 321° Northwest 480 552 36,000  Level Vancouver Center
06:33PM 57.5500 -134.3333 321° Northwest 480 552 36,000  Level Vancouver Center
06:34PM 57.6667 -134.5000 323° Northwest 480 552 36,000  Level Vancouver Center
06:35PM 57.7500 -134.6500 316° Northwest 480 552 36,000  Level Vancouver Center
06:36PM 57.8500 -134.8000 321° Northwest 470 541 36,000  Level Vancouver Center
06:37PM 57.9500 -134.9667 319° Northwest 470 541 36,000  Level Vancouver Center
06:38PM 58.0500 -135.1167 322° Northwest 470 541 36,000  Level Vancouver Center
06:39PM 58.1500 -135.2667 322° Northwest 470 541 36,000  Level Vancouver Center
06:40PM 58.2667 -135.3667 336° Northwest 470 541 36,000  Level Anchorage Center
06:41PM 58.3833 -135.4833 332° Northwest 470 541 36,000  Level Anchorage Center
06:42PM 58.5000 -135.6000 332° Northwest 470 541 36,000  Level Anchorage Center
06:43PM 58.6167 -135.7333 329° Northwest 470 541 36,000  Level Anchorage Center
06:44PM 58.7333 -135.8500 333° Northwest 480 552 36,000  Level Anchorage Center
06:45PM 58.8500 -135.9833 329° Northwest 470 541 36,000  Level Anchorage Center
06:46PM 58.9500 -136.0833 333° Northwest 470 541 36,000  Level Anchorage Center
06:47PM 59.0500 -136.2167 326° Northwest 470 541 36,000  Level Anchorage Center
06:48PM 59.1667 -136.3333 333° Northwest 460 529 36,000  Level Anchorage Center
06:49PM 59.2833 -136.4667 330° Northwest 460 529 36,000  Level Anchorage Center
06:50PM 59.3833 -136.5833 329° Northwest 460 529 36,000  Level Anchorage Center
06:51PM 59.5167 -136.7500 328° Northwest 460 529 36,000  Level Anchorage Center
06:52PM 59.6333 -136.8667 333° Northwest 450 518 36,000  Level Anchorage Center
06:53PM 59.7333 -137.0000 326° Northwest 450 518 36,000  Level Anchorage Center
06:54PM 59.8500 -137.1333 330° Northwest 450 518 36,000  Level Anchorage Center
06:55PM 59.9500 -137.2500 330° Northwest 450 518 36,000  Level Anchorage Center
06:56PM 60.0667 -137.3833 330° Northwest 440 506 36,000  Level Anchorage Center
06:57PM 60.1667 -137.5000 330° Northwest 450 518 36,000  Level Anchorage Center
06:58PM 60.2667 -137.6333 327° Northwest 440 506 36,000  Level Anchorage Center
06:59PM 60.3833 -137.7667 331° Northwest 450 518 36,000  Level Anchorage Center
07:00PM 60.4833 -137.9000 327° Northwest 450 518 36,000  Level Anchorage Center
07:01PM 60.6000 -138.0333 331° Northwest 450 518 36,000  Level Anchorage Center
07:02PM 60.7000 -138.1500 330° Northwest 440 506 36,000  Level Anchorage Center
07:03PM 60.8000 -138.2833 327° Northwest 440 506 36,000  Level Anchorage Center
07:04PM 60.9000 -138.4167 327° Northwest 430 495 36,000  Level Anchorage Center
07:05PM 61.0167 -138.5500 331° Northwest 440 506 36,000  Level Anchorage Center
07:06PM 61.1167 -138.6833 327° Northwest 430 495 36,000  Level Anchorage Center
07:07PM 61.2167 -138.8167 327° Northwest 420 483 36,000  Level Anchorage Center
07:08PM 61.3000 -138.9333 326° Northwest 410 472 36,000  Level Anchorage Center
07:09PM 61.4000 -139.0833 324° Northwest 410 472 36,000  Level Anchorage Center
07:10PM 61.4833 -139.2333 319° Northwest 420 483 36,000  Level Anchorage Center
07:11PM 61.5833 -139.4000 322° Northwest 420 483 36,000  Level Anchorage Center
07:14PM 61.8500 -139.8667 321° Northwest 430 495 36,000  Level Anchorage Center
07:16PM 61.9849 -140.1092 320° Northwest  Level FlightAware Approximate
07:22PM 62.5333 -141.0500 308° West 410 472 36,000  Level Anchorage Center
07:23PM 62.6227 -141.2965 319° Northwest  Level FlightAware Approximate
07:23PM 62.5833 -141.2333 301° West 420 483 36,000  Level Anchorage Center
07:24PM 62.7130 -141.4701 319° Northwest  Level FlightAware Approximate
07:24PM 62.6833 -141.4167 320° Northwest 420 483 36,000  Level Anchorage Center
07:25PM 62.8031 -141.6449 318° Northwest  Level FlightAware Approximate
07:25PM 62.7667 -141.6000 315° West 410 472 36,000  Level Anchorage Center
07:26PM 62.8930 -141.8206 318° Northwest  Level FlightAware Approximate
07:27PM 62.9740 -142.0152 308° West  Level FlightAware Approximate
07:28PM 63.0167 -142.1167 317° Northwest 410 472 36,000  Level Anchorage Center
07:29PM 63.0833 -142.3167 306° West 410 472 36,000  Level Anchorage Center
07:30PM 63.1500 -142.5167 306° West 410 472 36,000  Level Anchorage Center
07:31PM 63.2167 -142.7333 304° West 420 483 36,000  Level Anchorage Center
07:32PM 63.2833 -142.9333 307° West 420 483 36,000  Level Anchorage Center
07:33PM 63.3667 -143.1333 313° West 410 472 36,000  Level Anchorage Center
07:34PM 63.4333 -143.3500 305° West 410 472 36,000  Level Anchorage Center
07:35PM 63.5000 -143.5667 305° West 410 472 36,000  Level Anchorage Center
07:36PM 63.5667 -143.7667 307° West 420 483 36,000  Level Anchorage Center
07:37PM 63.6333 -143.9833 305° West 420 483 36,000 -120 Level Anchorage Center
07:38PM 63.7000 -144.2000 305° West 420 483 35,800 -540 Descending Anchorage Center
07:39PM 63.7667 -144.4167 305° West 420 483 35,000 -900 Descending Anchorage Center
07:40PM 63.8333 -144.6167 307° West 410 472 34,000 -1,560 Descending Anchorage Center
07:41PM 63.9000 -144.8833 300° West 420 483 31,800 -2,100 Descending Anchorage Center
07:42PM 63.9667 -145.0833 307° West 410 472 29,700 -2,160 Descending Anchorage Center
07:43PM 64.0333 -145.3000 305° West 400 460 27,500 -2,160 Descending Anchorage Center
07:44PM 64.1000 -145.5000 307° West 390 449 25,400 -2,100 Descending Anchorage Center
07:45PM 64.1500 -145.7167 298° West 380 437 23,300 -2,040 Descending Anchorage Center
07:46PM 64.2167 -145.9167 308° West 380 437 21,400 -2,040 Descending Anchorage Center
07:47PM 64.2667 -146.1167 300° West 370 426 19,300 -2,100 Descending Anchorage Center
07:49PM 64.3847 -146.5029 303° West  Level FlightAware Approximate
07:56PM 64.7004 -147.9032 10° North  Level FlightAware Approximate
07:57PM 64.8000 -147.8500 16° North  Level FlightAware Approximate
07:58PM 64.8151 -147.8564 16° North  Level Estimated
07:59PM 64.8151 -147.8564 16° North  Level Estimated
08:00PM 64.8151 -147.8564 16° North  Level Estimated
08:01PM 64.8151 -147.8564 16° North  Level Estimated
08:02PM 64.8151 -147.8564 16° North  Level Estimated
08:03PM 64.8151 -147.8564 16° North  Level Estimated
08:04PM 64.8151 -147.8564 16° North  Level Estimated
08:05PM 64.8151 -147.8564 16° North  Level Estimated
08:06PM 64.8151 -147.8564 16° North  Level Estimated
08:07PM 64.8151 -147.8564 16° North  Level Estimated
08:08PM 64.8151 -147.8564 16° North  Level Estimated
08:09PM 64.8151 -147.8564 16° North  Level Estimated
08:10PM 64.8151 -147.8564 16° North  Level Estimated
08:11PM 64.8151 -147.8564 16° North  Level Estimated